sensor_id;sensor_type;location;lat;lon;timestamp;temperature;humidity
47600;DHT22;33323;52.124;6.018;2023-12-20T00:00:37;5.80;99.90
47600;DHT22;33323;52.124;6.018;2023-12-20T00:03:04;5.80;99.90
47600;DHT22;33323;52.124;6.018;2023-12-20T00:05:36;5.70;99.90
47600;DHT22;33323;52.124;6.018;2023-12-20T00:08:26;5.70;99.90
47600;DHT22;33323;52.124;6.018;2023-12-20T00:10:53;5.60;99.90
47600;DHT22;33323;52.124;6.018;2023-12-20T00:13:21;5.50;99.90
47600;DHT22;33323;52.124;6.018;2023-12-20T00:15:48;5.60;99.90
47600;DHT22;33323;52.124;6.018;2023-12-20T00:18:15;5.60;99.90
47600;DHT22;33323;52.124;6.018;2023-12-20T00:20:43;5.50;99.90
47600;DHT22;33323;52.124;6.018;2023-12-20T00:23:10;5.50;99.90
47600;DHT22;33323;52.124;6.018;2023-12-20T00:25:37;5.60;99.90
47600;DHT22;33323;52.124;6.018;2023-12-20T00:28:04;5.50;99.90
47600;DHT22;33323;52.124;6.018;2023-12-20T00:30:33;5.50;99.90
47600;DHT22;33323;52.124;6.018;2023-12-20T00:33:00;5.40;99.90
47600;DHT22;33323;52.124;6.018;2023-12-20T00:35:31;5.40;99.90
47600;DHT22;33323;52.124;6.018;2023-12-20T00:37:59;5.40;99.90
47600;DHT22;33323;52.124;6.018;2023-12-20T00:40:26;5.30;99.90
47600;DHT22;33323;52.124;6.018;2023-12-20T00:42:53;5.30;99.90
47600;DHT22;33323;52.124;6.018;2023-12-20T00:45:21;5.30;99.90
47600;DHT22;33323;52.124;6.018;2023-12-20T00:47:48;5.30;99.90
47600;DHT22;33323;52.124;6.018;2023-12-20T00:50:15;5.20;99.90
47600;DHT22;33323;52.124;6.018;2023-12-20T00:55:52;5.20;99.90
47600;DHT22;33323;52.124;6.018;2023-12-20T00:58:19;5.10;99.90
47600;DHT22;33323;52.124;6.018;2023-12-20T01:00:47;5.20;99.90
47600;DHT22;33323;52.124;6.018;2023-12-20T01:03:14;5.20;99.90
47600;DHT22;33323;52.124;6.018;2023-12-20T01:05:42;5.10;99.90
47600;DHT22;33323;52.124;6.018;2023-12-20T01:08:09;5.00;99.90
47600;DHT22;33323;52.124;6.018;2023-12-20T01:10:36;5.10;99.90
47600;DHT22;33323;52.124;6.018;2023-12-20T01:13:03;5.00;99.90
47600;DHT22;33323;52.124;6.018;2023-12-20T01:15:30;4.90;99.90
47600;DHT22;33323;52.124;6.018;2023-12-20T01:17:57;4.90;99.90
47600;DHT22;33323;52.124;6.018;2023-12-20T01:20:26;4.80;99.90
47600;DHT22;33323;52.124;6.018;2023-12-20T01:22:53;4.80;99.90
47600;DHT22;33323;52.124;6.018;2023-12-20T01:28:09;4.80;99.90
47600;DHT22;33323;52.124;6.018;2023-12-20T01:30:37;4.80;99.90
47600;DHT22;33323;52.124;6.018;2023-12-20T01:48:54;4.80;99.90
47600;DHT22;33323;52.124;6.018;2023-12-20T02:43:43;5.10;99.90
47600;DHT22;33323;52.124;6.018;2023-12-20T03:04:02;5.10;99.90
47600;DHT22;33323;52.124;6.018;2023-12-20T03:06:30;5.10;99.90
47600;DHT22;33323;52.124;6.018;2023-12-20T03:08:57;5.10;99.90
47600;DHT22;33323;52.124;6.018;2023-12-20T03:11:28;5.10;99.90
47600;DHT22;33323;52.124;6.018;2023-12-20T03:13:57;5.10;99.90
47600;DHT22;33323;52.124;6.018;2023-12-20T03:16:24;5.10;99.90
47600;DHT22;33323;52.124;6.018;2023-12-20T04:28:58;5.10;99.90
47600;DHT22;33323;52.124;6.018;2023-12-20T05:22:23;5.60;99.90
47600;DHT22;33323;52.124;6.018;2023-12-20T05:52:34;5.90;99.90
47600;DHT22;33323;52.124;6.018;2023-12-20T06:11:09;6.00;99.90
47600;DHT22;33323;52.124;6.018;2023-12-20T06:13:36;6.10;99.90
47600;DHT22;33323;52.124;6.018;2023-12-20T07:03:04;6.30;99.90
47600;DHT22;33323;52.124;6.018;2023-12-20T07:05:31;6.30;99.90
47600;DHT22;33323;52.124;6.018;2023-12-20T07:18:42;6.30;99.90
47600;DHT22;33323;52.124;6.018;2023-12-20T07:21:09;6.40;99.90
47600;DHT22;33323;52.124;6.018;2023-12-20T07:41:05;6.40;99.90
47600;DHT22;33323;52.124;6.018;2023-12-20T07:43:33;6.40;99.90
47600;DHT22;33323;52.124;6.018;2023-12-20T07:46:10;6.40;99.90
47600;DHT22;33323;52.124;6.018;2023-12-20T08:29:49;6.70;99.90
47600;DHT22;33323;52.124;6.018;2023-12-20T08:32:19;6.70;99.90
47600;DHT22;33323;52.124;6.018;2023-12-20T08:35:05;6.70;99.90
47600;DHT22;33323;52.124;6.018;2023-12-20T08:37:33;6.70;99.90
47600;DHT22;33323;52.124;6.018;2023-12-20T08:42:49;6.70;99.90
47600;DHT22;33323;52.124;6.018;2023-12-20T08:45:16;6.80;99.90
47600;DHT22;33323;52.124;6.018;2023-12-20T08:47:43;6.70;99.90
47600;DHT22;33323;52.124;6.018;2023-12-20T08:50:12;6.70;99.90
47600;DHT22;33323;52.124;6.018;2023-12-20T08:53:09;6.80;99.90
47600;DHT22;33323;52.124;6.018;2023-12-20T08:55:36;6.70;99.90
47600;DHT22;33323;52.124;6.018;2023-12-20T08:58:04;6.80;99.90
47600;DHT22;33323;52.124;6.018;2023-12-20T09:19:32;6.80;99.90
47600;DHT22;33323;52.124;6.018;2023-12-20T09:22:00;6.70;99.90
47600;DHT22;33323;52.124;6.018;2023-12-20T09:37:08;6.80;99.90
47600;DHT22;33323;52.124;6.018;2023-12-20T09:45:53;6.70;99.90
47600;DHT22;33323;52.124;6.018;2023-12-20T09:59:04;6.80;99.90
47600;DHT22;33323;52.124;6.018;2023-12-20T10:01:31;6.80;99.90
47600;DHT22;33323;52.124;6.018;2023-12-20T10:04:01;6.70;99.90
47600;DHT22;33323;52.124;6.018;2023-12-20T10:07:04;6.80;99.90
47600;DHT22;33323;52.124;6.018;2023-12-20T10:09:36;6.80;99.90
47600;DHT22;33323;52.124;6.018;2023-12-20T10:12:28;6.80;99.90
47600;DHT22;33323;52.124;6.018;2023-12-20T10:21:23;7.00;99.90
47600;DHT22;33323;52.124;6.018;2023-12-20T10:23:55;7.00;99.90
47600;DHT22;33323;52.124;6.018;2023-12-20T10:26:29;7.00;99.90
47600;DHT22;33323;52.124;6.018;2023-12-20T10:29:01;7.00;99.90
47600;DHT22;33323;52.124;6.018;2023-12-20T10:31:34;7.10;99.90
47600;DHT22;33323;52.124;6.018;2023-12-20T10:34:03;7.10;99.90
47600;DHT22;33323;52.124;6.018;2023-12-20T10:36:32;7.10;99.90
47600;DHT22;33323;52.124;6.018;2023-12-20T10:39:01;7.10;99.90
47600;DHT22;33323;52.124;6.018;2023-12-20T10:41:32;7.10;99.90
47600;DHT22;33323;52.124;6.018;2023-12-20T10:44:03;7.10;99.90
47600;DHT22;33323;52.124;6.018;2023-12-20T10:46:34;7.10;99.90
47600;DHT22;33323;52.124;6.018;2023-12-20T10:49:06;7.10;99.90
47600;DHT22;33323;52.124;6.018;2023-12-20T10:51:35;7.20;99.90
47600;DHT22;33323;52.124;6.018;2023-12-20T10:54:03;7.20;99.90
47600;DHT22;33323;52.124;6.018;2023-12-20T10:56:32;7.30;99.90
47600;DHT22;33323;52.124;6.018;2023-12-20T10:59:02;7.40;99.90
47600;DHT22;33323;52.124;6.018;2023-12-20T11:01:31;7.40;99.90
47600;DHT22;33323;52.124;6.018;2023-12-20T11:03:59;7.50;99.90
47600;DHT22;33323;52.124;6.018;2023-12-20T11:06:40;7.50;99.90
47600;DHT22;33323;52.124;6.018;2023-12-20T11:09:14;7.40;99.90
47600;DHT22;33323;52.124;6.018;2023-12-20T11:12:06;7.50;99.90
47600;DHT22;33323;52.124;6.018;2023-12-20T11:14:51;7.50;99.90
47600;DHT22;33323;52.124;6.018;2023-12-20T11:17:21;7.60;99.90
47600;DHT22;33323;52.124;6.018;2023-12-20T11:22:30;7.80;99.90
47600;DHT22;33323;52.124;6.018;2023-12-20T11:25:09;7.70;99.90
47600;DHT22;33323;52.124;6.018;2023-12-20T11:27:42;7.80;99.90
47600;DHT22;33323;52.124;6.018;2023-12-20T11:30:12;7.90;99.90
47600;DHT22;33323;52.124;6.018;2023-12-20T11:32:42;7.90;99.90
47600;DHT22;33323;52.124;6.018;2023-12-20T11:37:40;8.00;99.90
47600;DHT22;33323;52.124;6.018;2023-12-20T11:40:16;8.10;99.90
47600;DHT22;33323;52.124;6.018;2023-12-20T11:42:46;8.20;99.90
47600;DHT22;33323;52.124;6.018;2023-12-20T11:45:18;8.20;99.90
47600;DHT22;33323;52.124;6.018;2023-12-20T11:47:50;8.40;99.90
47600;DHT22;33323;52.124;6.018;2023-12-20T11:50:19;8.60;99.90
47600;DHT22;33323;52.124;6.018;2023-12-20T11:52:48;8.70;99.90
47600;DHT22;33323;52.124;6.018;2023-12-20T11:55:19;8.70;99.90
47600;DHT22;33323;52.124;6.018;2023-12-20T11:57:47;8.70;99.90
47600;DHT22;33323;52.124;6.018;2023-12-20T12:00:16;8.60;99.90
47600;DHT22;33323;52.124;6.018;2023-12-20T12:02:43;8.60;99.90
47600;DHT22;33323;52.124;6.018;2023-12-20T12:05:22;8.50;99.90
47600;DHT22;33323;52.124;6.018;2023-12-20T12:07:50;8.50;99.90
47600;DHT22;33323;52.124;6.018;2023-12-20T12:10:17;8.60;99.90
47600;DHT22;33323;52.124;6.018;2023-12-20T12:12:45;8.60;99.90
47600;DHT22;33323;52.124;6.018;2023-12-20T12:15:15;8.60;99.90
47600;DHT22;33323;52.124;6.018;2023-12-20T12:17:43;8.70;99.90
47600;DHT22;33323;52.124;6.018;2023-12-20T12:20:11;8.70;99.90
47600;DHT22;33323;52.124;6.018;2023-12-20T12:22:39;8.70;99.90
47600;DHT22;33323;52.124;6.018;2023-12-20T12:25:11;8.60;99.90
47600;DHT22;33323;52.124;6.018;2023-12-20T12:27:40;8.50;99.90
47600;DHT22;33323;52.124;6.018;2023-12-20T12:30:10;8.50;99.90
47600;DHT22;33323;52.124;6.018;2023-12-20T12:32:40;8.50;99.90
47600;DHT22;33323;52.124;6.018;2023-12-20T12:35:09;8.50;99.90
47600;DHT22;33323;52.124;6.018;2023-12-20T12:37:38;8.50;99.90
47600;DHT22;33323;52.124;6.018;2023-12-20T12:40:10;8.50;99.90
47600;DHT22;33323;52.124;6.018;2023-12-20T12:42:39;8.50;99.90
47600;DHT22;33323;52.124;6.018;2023-12-20T12:45:08;8.50;99.90
47600;DHT22;33323;52.124;6.018;2023-12-20T12:47:36;8.50;99.90
47600;DHT22;33323;52.124;6.018;2023-12-20T12:50:04;8.40;99.90
47600;DHT22;33323;52.124;6.018;2023-12-20T12:52:32;8.40;99.90
47600;DHT22;33323;52.124;6.018;2023-12-20T12:55:03;8.50;99.90
47600;DHT22;33323;52.124;6.018;2023-12-20T12:57:33;8.40;99.90
47600;DHT22;33323;52.124;6.018;2023-12-20T13:00:01;8.50;99.90
47600;DHT22;33323;52.124;6.018;2023-12-20T13:02:31;8.50;99.90
47600;DHT22;33323;52.124;6.018;2023-12-20T13:04:59;8.50;99.90
47600;DHT22;33323;52.124;6.018;2023-12-20T13:07:28;8.60;99.90
47600;DHT22;33323;52.124;6.018;2023-12-20T13:09:56;8.50;99.90
47600;DHT22;33323;52.124;6.018;2023-12-20T13:12:23;8.60;99.90
47600;DHT22;33323;52.124;6.018;2023-12-20T13:14:51;8.50;99.90
47600;DHT22;33323;52.124;6.018;2023-12-20T13:17:21;8.60;99.90
47600;DHT22;33323;52.124;6.018;2023-12-20T13:19:51;8.60;99.90
47600;DHT22;33323;52.124;6.018;2023-12-20T13:22:19;8.50;99.90
47600;DHT22;33323;52.124;6.018;2023-12-20T13:24:47;8.50;99.90
47600;DHT22;33323;52.124;6.018;2023-12-20T13:27:16;8.50;99.90
47600;DHT22;33323;52.124;6.018;2023-12-20T13:29:44;8.50;99.90
47600;DHT22;33323;52.124;6.018;2023-12-20T13:32:15;8.60;99.90
47600;DHT22;33323;52.124;6.018;2023-12-20T13:34:43;8.60;99.90
47600;DHT22;33323;52.124;6.018;2023-12-20T13:37:10;8.50;99.90
47600;DHT22;33323;52.124;6.018;2023-12-20T13:39:38;8.40;99.90
47600;DHT22;33323;52.124;6.018;2023-12-20T13:42:07;8.40;99.90
47600;DHT22;33323;52.124;6.018;2023-12-20T13:44:35;8.40;99.90
47600;DHT22;33323;52.124;6.018;2023-12-20T13:47:03;8.40;99.90
47600;DHT22;33323;52.124;6.018;2023-12-20T13:49:33;8.30;99.90
47600;DHT22;33323;52.124;6.018;2023-12-20T13:52:02;8.30;99.90
47600;DHT22;33323;52.124;6.018;2023-12-20T13:54:31;8.30;99.90
47600;DHT22;33323;52.124;6.018;2023-12-20T13:56:59;8.30;99.90
47600;DHT22;33323;52.124;6.018;2023-12-20T13:59:42;8.30;99.90
47600;DHT22;33323;52.124;6.018;2023-12-20T14:02:10;8.20;99.90
47600;DHT22;33323;52.124;6.018;2023-12-20T14:04:37;8.30;99.90
47600;DHT22;33323;52.124;6.018;2023-12-20T14:07:10;8.30;99.90
47600;DHT22;33323;52.124;6.018;2023-12-20T14:09:40;8.20;99.90
47600;DHT22;33323;52.124;6.018;2023-12-20T14:12:14;8.20;99.90
47600;DHT22;33323;52.124;6.018;2023-12-20T14:14:45;8.20;99.90
47600;DHT22;33323;52.124;6.018;2023-12-20T14:17:13;8.30;99.90
47600;DHT22;33323;52.124;6.018;2023-12-20T14:19:41;8.30;99.90
47600;DHT22;33323;52.124;6.018;2023-12-20T14:22:09;8.20;99.90
47600;DHT22;33323;52.124;6.018;2023-12-20T14:24:37;8.20;99.90
47600;DHT22;33323;52.124;6.018;2023-12-20T14:27:05;8.30;99.90
47600;DHT22;33323;52.124;6.018;2023-12-20T14:29:33;8.30;99.90
47600;DHT22;33323;52.124;6.018;2023-12-20T14:32:01;8.30;99.90
47600;DHT22;33323;52.124;6.018;2023-12-20T14:34:31;8.30;99.90
47600;DHT22;33323;52.124;6.018;2023-12-20T14:36:59;8.30;99.90
47600;DHT22;33323;52.124;6.018;2023-12-20T14:39:27;8.30;99.90
47600;DHT22;33323;52.124;6.018;2023-12-20T14:41:55;8.30;99.90
47600;DHT22;33323;52.124;6.018;2023-12-20T14:44:23;8.30;99.90
47600;DHT22;33323;52.124;6.018;2023-12-20T14:46:51;8.30;99.90
47600;DHT22;33323;52.124;6.018;2023-12-20T14:49:18;8.30;99.90
47600;DHT22;33323;52.124;6.018;2023-12-20T14:51:46;8.30;99.90
47600;DHT22;33323;52.124;6.018;2023-12-20T14:54:15;8.30;99.90
47600;DHT22;33323;52.124;6.018;2023-12-20T14:56:42;8.20;99.90
47600;DHT22;33323;52.124;6.018;2023-12-20T14:59:10;8.20;99.90
47600;DHT22;33323;52.124;6.018;2023-12-20T15:01:38;8.20;99.90
47600;DHT22;33323;52.124;6.018;2023-12-20T15:04:08;8.20;99.90
47600;DHT22;33323;52.124;6.018;2023-12-20T15:06:36;8.20;99.90
47600;DHT22;33323;52.124;6.018;2023-12-20T15:09:04;8.20;99.90
47600;DHT22;33323;52.124;6.018;2023-12-20T15:11:32;8.20;99.90
47600;DHT22;33323;52.124;6.018;2023-12-20T15:14:00;8.20;99.90
47600;DHT22;33323;52.124;6.018;2023-12-20T15:16:29;8.20;99.90
47600;DHT22;33323;52.124;6.018;2023-12-20T15:18:58;8.10;99.90
47600;DHT22;33323;52.124;6.018;2023-12-20T15:21:26;8.20;99.90
47600;DHT22;33323;52.124;6.018;2023-12-20T15:24:00;8.20;99.90
47600;DHT22;33323;52.124;6.018;2023-12-20T15:26:34;8.20;99.90
47600;DHT22;33323;52.124;6.018;2023-12-20T15:29:03;8.10;99.90
47600;DHT22;33323;52.124;6.018;2023-12-20T15:31:32;8.10;99.90
47600;DHT22;33323;52.124;6.018;2023-12-20T15:34:03;8.10;99.90
47600;DHT22;33323;52.124;6.018;2023-12-20T15:36:30;8.10;99.90
47600;DHT22;33323;52.124;6.018;2023-12-20T15:38:59;8.10;99.90
47600;DHT22;33323;52.124;6.018;2023-12-20T15:41:26;8.00;99.90
47600;DHT22;33323;52.124;6.018;2023-12-20T15:43:53;8.10;99.90
47600;DHT22;33323;52.124;6.018;2023-12-20T15:46:21;8.00;99.90
47600;DHT22;33323;52.124;6.018;2023-12-20T15:48:49;8.00;99.90
47600;DHT22;33323;52.124;6.018;2023-12-20T15:51:20;8.00;99.90
47600;DHT22;33323;52.124;6.018;2023-12-20T15:53:49;8.00;99.90
47600;DHT22;33323;52.124;6.018;2023-12-20T15:56:19;7.90;99.90
47600;DHT22;33323;52.124;6.018;2023-12-20T15:58:46;7.90;99.90
47600;DHT22;33323;52.124;6.018;2023-12-20T16:01:18;7.90;99.90
47600;DHT22;33323;52.124;6.018;2023-12-20T16:03:46;7.90;99.90
47600;DHT22;33323;52.124;6.018;2023-12-20T16:06:24;7.90;99.90
47600;DHT22;33323;52.124;6.018;2023-12-20T16:08:51;7.90;99.90
47600;DHT22;33323;52.124;6.018;2023-12-20T16:11:18;7.80;99.90
47600;DHT22;33323;52.124;6.018;2023-12-20T16:13:45;7.80;99.90
47600;DHT22;33323;52.124;6.018;2023-12-20T16:16:13;7.80;99.90
47600;DHT22;33323;52.124;6.018;2023-12-20T16:18:40;7.70;99.90
47600;DHT22;33323;52.124;6.018;2023-12-20T16:21:07;7.70;99.90
47600;DHT22;33323;52.124;6.018;2023-12-20T16:23:34;7.70;99.90
47600;DHT22;33323;52.124;6.018;2023-12-20T16:26:01;7.70;99.90
47600;DHT22;33323;52.124;6.018;2023-12-20T16:28:28;7.60;99.90
47600;DHT22;33323;52.124;6.018;2023-12-20T16:30:55;7.70;99.90
47600;DHT22;33323;52.124;6.018;2023-12-20T16:33:23;7.70;99.90
47600;DHT22;33323;52.124;6.018;2023-12-20T16:35:50;7.70;99.90
47600;DHT22;33323;52.124;6.018;2023-12-20T16:38:18;7.60;99.90
47600;DHT22;33323;52.124;6.018;2023-12-20T16:40:45;7.60;99.90
47600;DHT22;33323;52.124;6.018;2023-12-20T16:43:12;7.60;99.90
47600;DHT22;33323;52.124;6.018;2023-12-20T16:45:39;7.60;99.90
47600;DHT22;33323;52.124;6.018;2023-12-20T16:48:06;7.70;99.90
47600;DHT22;33323;52.124;6.018;2023-12-20T16:50:33;7.60;99.90
47600;DHT22;33323;52.124;6.018;2023-12-20T16:53:01;7.60;99.90
47600;DHT22;33323;52.124;6.018;2023-12-20T16:55:28;7.60;99.90
47600;DHT22;33323;52.124;6.018;2023-12-20T16:57:55;7.70;99.90
47600;DHT22;33323;52.124;6.018;2023-12-20T17:00:23;7.60;99.90
47600;DHT22;33323;52.124;6.018;2023-12-20T17:02:50;7.70;99.90
47600;DHT22;33323;52.124;6.018;2023-12-20T17:05:17;7.70;99.90
47600;DHT22;33323;52.124;6.018;2023-12-20T17:07:45;7.70;99.90
47600;DHT22;33323;52.124;6.018;2023-12-20T17:10:14;7.60;99.90
47600;DHT22;33323;52.124;6.018;2023-12-20T17:12:41;7.70;99.90
47600;DHT22;33323;52.124;6.018;2023-12-20T17:15:08;7.70;99.90
47600;DHT22;33323;52.124;6.018;2023-12-20T17:17:36;7.70;99.90
47600;DHT22;33323;52.124;6.018;2023-12-20T17:20:03;7.70;99.90
47600;DHT22;33323;52.124;6.018;2023-12-20T17:22:31;7.70;99.90
47600;DHT22;33323;52.124;6.018;2023-12-20T17:24:58;7.70;99.90
47600;DHT22;33323;52.124;6.018;2023-12-20T17:27:25;7.70;99.90
47600;DHT22;33323;52.124;6.018;2023-12-20T17:29:52;7.70;99.90
47600;DHT22;33323;52.124;6.018;2023-12-20T17:32:19;7.70;99.90
47600;DHT22;33323;52.124;6.018;2023-12-20T17:34:46;7.80;99.90
47600;DHT22;33323;52.124;6.018;2023-12-20T17:37:13;7.70;99.90
47600;DHT22;33323;52.124;6.018;2023-12-20T17:39:40;7.70;99.90
47600;DHT22;33323;52.124;6.018;2023-12-20T17:42:08;7.70;99.90
47600;DHT22;33323;52.124;6.018;2023-12-20T17:44:39;7.70;99.90
47600;DHT22;33323;52.124;6.018;2023-12-20T17:47:06;7.70;99.90
47600;DHT22;33323;52.124;6.018;2023-12-20T17:49:33;7.70;99.90
47600;DHT22;33323;52.124;6.018;2023-12-20T17:52:01;7.70;99.90
47600;DHT22;33323;52.124;6.018;2023-12-20T17:54:29;7.80;99.90
47600;DHT22;33323;52.124;6.018;2023-12-20T17:56:56;7.70;99.90
47600;DHT22;33323;52.124;6.018;2023-12-20T17:59:26;7.80;99.90
47600;DHT22;33323;52.124;6.018;2023-12-20T18:01:54;7.80;99.90
47600;DHT22;33323;52.124;6.018;2023-12-20T18:04:21;7.80;99.90
47600;DHT22;33323;52.124;6.018;2023-12-20T18:06:50;7.80;99.90
47600;DHT22;33323;52.124;6.018;2023-12-20T18:09:17;7.80;99.90
47600;DHT22;33323;52.124;6.018;2023-12-20T18:11:44;7.80;99.90
47600;DHT22;33323;52.124;6.018;2023-12-20T18:14:11;7.80;99.90
47600;DHT22;33323;52.124;6.018;2023-12-20T18:16:38;7.80;99.90
47600;DHT22;33323;52.124;6.018;2023-12-20T18:19:07;7.90;99.90
47600;DHT22;33323;52.124;6.018;2023-12-20T18:21:34;7.90;99.90
47600;DHT22;33323;52.124;6.018;2023-12-20T18:24:02;7.90;99.90
47600;DHT22;33323;52.124;6.018;2023-12-20T18:26:36;7.90;99.90
47600;DHT22;33323;52.124;6.018;2023-12-20T18:29:06;7.90;99.90
47600;DHT22;33323;52.124;6.018;2023-12-20T18:31:33;7.90;99.90
47600;DHT22;33323;52.124;6.018;2023-12-20T18:34:00;7.90;99.90
47600;DHT22;33323;52.124;6.018;2023-12-20T18:36:29;8.00;99.90
47600;DHT22;33323;52.124;6.018;2023-12-20T18:38:56;7.90;99.90
47600;DHT22;33323;52.124;6.018;2023-12-20T18:41:23;7.90;99.90
47600;DHT22;33323;52.124;6.018;2023-12-20T18:43:50;7.90;99.90
47600;DHT22;33323;52.124;6.018;2023-12-20T18:46:17;8.00;99.90
47600;DHT22;33323;52.124;6.018;2023-12-20T18:48:44;8.00;99.90
47600;DHT22;33323;52.124;6.018;2023-12-20T18:51:11;8.00;99.90
47600;DHT22;33323;52.124;6.018;2023-12-20T18:53:38;8.00;99.90
47600;DHT22;33323;52.124;6.018;2023-12-20T18:56:06;8.00;99.90
47600;DHT22;33323;52.124;6.018;2023-12-20T18:58:34;8.00;99.90
47600;DHT22;33323;52.124;6.018;2023-12-20T19:01:02;8.00;99.90
47600;DHT22;33323;52.124;6.018;2023-12-20T19:03:30;8.00;99.90
47600;DHT22;33323;52.124;6.018;2023-12-20T19:05:57;8.00;99.90
47600;DHT22;33323;52.124;6.018;2023-12-20T19:08:26;8.00;99.90
47600;DHT22;33323;52.124;6.018;2023-12-20T19:10:53;8.00;99.90
47600;DHT22;33323;52.124;6.018;2023-12-20T19:13:23;8.10;99.90
47600;DHT22;33323;52.124;6.018;2023-12-20T19:15:59;8.00;99.90
47600;DHT22;33323;52.124;6.018;2023-12-20T19:18:27;8.10;99.90
47600;DHT22;33323;52.124;6.018;2023-12-20T19:20:54;8.10;99.90
47600;DHT22;33323;52.124;6.018;2023-12-20T19:23:21;8.10;99.90
47600;DHT22;33323;52.124;6.018;2023-12-20T19:25:48;8.10;99.90
47600;DHT22;33323;52.124;6.018;2023-12-20T19:28:15;8.00;99.90
47600;DHT22;33323;52.124;6.018;2023-12-20T19:30:43;8.00;99.90
47600;DHT22;33323;52.124;6.018;2023-12-20T19:33:10;8.10;99.90
47600;DHT22;33323;52.124;6.018;2023-12-20T19:35:37;8.10;99.90
47600;DHT22;33323;52.124;6.018;2023-12-20T19:38:04;8.10;99.90
47600;DHT22;33323;52.124;6.018;2023-12-20T19:40:31;8.10;99.90
47600;DHT22;33323;52.124;6.018;2023-12-20T19:42:58;8.10;99.90
47600;DHT22;33323;52.124;6.018;2023-12-20T19:45:25;8.10;99.90
47600;DHT22;33323;52.124;6.018;2023-12-20T19:47:52;8.20;99.90
47600;DHT22;33323;52.124;6.018;2023-12-20T19:50:20;8.10;99.90
47600;DHT22;33323;52.124;6.018;2023-12-20T19:52:47;8.10;99.90
47600;DHT22;33323;52.124;6.018;2023-12-20T19:55:14;8.20;99.90
47600;DHT22;33323;52.124;6.018;2023-12-20T19:57:41;8.10;99.90
47600;DHT22;33323;52.124;6.018;2023-12-20T20:00:09;8.20;99.90
47600;DHT22;33323;52.124;6.018;2023-12-20T20:02:39;8.10;99.90
47600;DHT22;33323;52.124;6.018;2023-12-20T20:05:06;8.20;99.90
47600;DHT22;33323;52.124;6.018;2023-12-20T20:07:34;8.20;99.90
47600;DHT22;33323;52.124;6.018;2023-12-20T20:10:01;8.10;99.90
47600;DHT22;33323;52.124;6.018;2023-12-20T20:12:29;8.20;99.90
47600;DHT22;33323;52.124;6.018;2023-12-20T20:14:56;8.20;99.90
47600;DHT22;33323;52.124;6.018;2023-12-20T20:17:23;8.20;99.90
47600;DHT22;33323;52.124;6.018;2023-12-20T20:19:50;8.20;99.90
47600;DHT22;33323;52.124;6.018;2023-12-20T20:22:18;8.20;99.90
47600;DHT22;33323;52.124;6.018;2023-12-20T20:24:45;8.20;99.90
47600;DHT22;33323;52.124;6.018;2023-12-20T20:27:12;8.20;99.90
47600;DHT22;33323;52.124;6.018;2023-12-20T20:29:40;8.20;99.90
47600;DHT22;33323;52.124;6.018;2023-12-20T20:32:07;8.20;99.90
47600;DHT22;33323;52.124;6.018;2023-12-20T20:34:34;8.20;99.90
47600;DHT22;33323;52.124;6.018;2023-12-20T20:37:01;8.20;99.90
47600;DHT22;33323;52.124;6.018;2023-12-20T20:39:28;8.20;99.90
47600;DHT22;33323;52.124;6.018;2023-12-20T20:41:56;8.20;99.90
47600;DHT22;33323;52.124;6.018;2023-12-20T20:44:23;8.20;99.90
47600;DHT22;33323;52.124;6.018;2023-12-20T20:46:50;8.20;99.90
47600;DHT22;33323;52.124;6.018;2023-12-20T20:49:17;8.20;99.90
47600;DHT22;33323;52.124;6.018;2023-12-20T20:51:45;8.30;99.90
47600;DHT22;33323;52.124;6.018;2023-12-20T20:54:12;8.30;99.90
47600;DHT22;33323;52.124;6.018;2023-12-20T20:56:45;8.30;99.90
47600;DHT22;33323;52.124;6.018;2023-12-20T20:59:13;8.30;99.90
47600;DHT22;33323;52.124;6.018;2023-12-20T21:01:40;8.30;99.90
47600;DHT22;33323;52.124;6.018;2023-12-20T21:04:10;8.30;99.90
47600;DHT22;33323;52.124;6.018;2023-12-20T21:06:37;8.30;99.90
47600;DHT22;33323;52.124;6.018;2023-12-20T21:09:04;8.30;99.90
47600;DHT22;33323;52.124;6.018;2023-12-20T21:11:32;8.40;99.90
47600;DHT22;33323;52.124;6.018;2023-12-20T21:13:58;8.40;99.90
47600;DHT22;33323;52.124;6.018;2023-12-20T21:16:26;8.40;99.90
47600;DHT22;33323;52.124;6.018;2023-12-20T21:18:53;8.40;99.90
47600;DHT22;33323;52.124;6.018;2023-12-20T21:21:20;8.40;99.90
47600;DHT22;33323;52.124;6.018;2023-12-20T21:23:47;8.40;99.90
47600;DHT22;33323;52.124;6.018;2023-12-20T21:26:14;8.50;99.90
47600;DHT22;33323;52.124;6.018;2023-12-20T21:28:41;8.40;99.90
47600;DHT22;33323;52.124;6.018;2023-12-20T21:31:08;8.50;99.90
47600;DHT22;33323;52.124;6.018;2023-12-20T21:33:36;8.50;99.90
47600;DHT22;33323;52.124;6.018;2023-12-20T21:36:03;8.40;99.90
47600;DHT22;33323;52.124;6.018;2023-12-20T21:38:31;8.50;99.90
47600;DHT22;33323;52.124;6.018;2023-12-20T21:40:58;8.50;99.90
47600;DHT22;33323;52.124;6.018;2023-12-20T21:43:25;8.50;99.90
47600;DHT22;33323;52.124;6.018;2023-12-20T21:45:52;8.50;99.90
47600;DHT22;33323;52.124;6.018;2023-12-20T21:48:19;8.50;99.90
47600;DHT22;33323;52.124;6.018;2023-12-20T21:50:47;8.50;99.90
47600;DHT22;33323;52.124;6.018;2023-12-20T21:53:14;8.50;99.90
47600;DHT22;33323;52.124;6.018;2023-12-20T21:55:42;8.50;99.90
47600;DHT22;33323;52.124;6.018;2023-12-20T21:58:10;8.50;99.90
47600;DHT22;33323;52.124;6.018;2023-12-20T22:00:37;8.50;99.90
47600;DHT22;33323;52.124;6.018;2023-12-20T22:03:04;8.50;99.90
47600;DHT22;33323;52.124;6.018;2023-12-20T22:05:36;8.50;99.90
47600;DHT22;33323;52.124;6.018;2023-12-20T22:08:05;8.50;99.90
47600;DHT22;33323;52.124;6.018;2023-12-20T22:10:33;8.50;99.90
47600;DHT22;33323;52.124;6.018;2023-12-20T22:13:00;8.60;99.90
47600;DHT22;33323;52.124;6.018;2023-12-20T22:15:27;8.60;99.90
47600;DHT22;33323;52.124;6.018;2023-12-20T22:17:55;8.60;99.90
47600;DHT22;33323;52.124;6.018;2023-12-20T22:20:22;8.60;99.90
47600;DHT22;33323;52.124;6.018;2023-12-20T22:22:50;8.60;99.90
47600;DHT22;33323;52.124;6.018;2023-12-20T22:25:17;8.70;99.90
47600;DHT22;33323;52.124;6.018;2023-12-20T22:27:46;8.60;99.90
47600;DHT22;33323;52.124;6.018;2023-12-20T22:30:13;8.60;99.90
47600;DHT22;33323;52.124;6.018;2023-12-20T22:32:41;8.60;99.90
47600;DHT22;33323;52.124;6.018;2023-12-20T22:35:08;8.70;99.90
47600;DHT22;33323;52.124;6.018;2023-12-20T22:37:36;8.70;99.90
47600;DHT22;33323;52.124;6.018;2023-12-20T22:40:03;8.70;99.90
47600;DHT22;33323;52.124;6.018;2023-12-20T22:42:31;8.60;99.90
47600;DHT22;33323;52.124;6.018;2023-12-20T22:44:58;8.60;99.90
47600;DHT22;33323;52.124;6.018;2023-12-20T22:47:25;8.70;99.90
47600;DHT22;33323;52.124;6.018;2023-12-20T22:49:52;8.70;99.90
47600;DHT22;33323;52.124;6.018;2023-12-20T22:52:20;8.70;99.90
47600;DHT22;33323;52.124;6.018;2023-12-20T22:54:51;8.70;99.90
47600;DHT22;33323;52.124;6.018;2023-12-20T22:57:18;8.70;99.90
47600;DHT22;33323;52.124;6.018;2023-12-20T22:59:45;8.70;99.90
47600;DHT22;33323;52.124;6.018;2023-12-20T23:02:13;8.70;99.90
47600;DHT22;33323;52.124;6.018;2023-12-20T23:04:40;8.70;99.90
47600;DHT22;33323;52.124;6.018;2023-12-20T23:07:09;8.70;99.90
47600;DHT22;33323;52.124;6.018;2023-12-20T23:09:37;8.70;99.90